Time;durP1;ratioP1;P1;durP2;ratioP2;P2;SDS_P1;SDS_P2;PMS_P1;PMS_P2;Temp;Humidity;BMP_temperature;BMP_pressure;BME280_temperature;BME280_humidity;BME280_pressure;Samples;Min_cycle;Max_cycle;Signal;HPM_P1;HPM_P2
2021/10/10 00:00:56;;;;;;;16.60;10.45;;;;;;;9.38;40.07;101444.88;1831842;78;21016;-60
2021/10/10 00:03:23;;;;;;;17.10;11.12;;;;;;;9.35;40.06;101445.59;1832058;78;21009;-59
2021/10/10 00:05:52;;;;;;;16.32;10.40;;;;;;;9.34;40.10;101442.11;1832027;77;21539;-60
2021/10/10 00:08:18;;;;;;;17.05;11.30;;;;;;;9.31;40.14;101447.67;1831973;77;21068;-59
2021/10/10 00:10:48;;;;;;;13.95;10.13;;;;;;;9.31;40.18;101445.48;1831912;78;21774;-59
2021/10/10 00:13:16;;;;;;;15.48;11.30;;;;;;;9.28;40.21;101438.61;1800130;77;21013;-59
2021/10/10 00:15:42;;;;;;;14.68;10.35;;;;;;;9.27;40.23;101443.53;1799421;79;21064;-59
2021/10/10 00:18:11;;;;;;;14.80;10.70;;;;;;;9.27;40.29;101438.23;1764266;81;21008;-59
2021/10/10 00:20:39;;;;;;;19.25;10.50;;;;;;;9.27;40.31;101442.21;1747871;82;21065;-59
2021/10/10 02:38:06;;;;;;;11.22;7.87;;;;;;;11.34;37.47;101414.41;1749834;81;28505;-63
2021/10/10 02:40:34;;;;;;;12.33;7.83;;;;;;;11.37;37.12;101419.45;1726394;82;21038;-64
2021/10/10 02:43:01;;;;;;;13.25;7.20;;;;;;;11.25;37.22;101423.17;1704150;81;21187;-64
2021/10/10 02:45:27;;;;;;;11.53;8.30;;;;;;;11.08;37.36;101419.29;1709293;81;20952;-63
2021/10/10 02:47:54;;;;;;;10.03;7.60;;;;;;;10.93;37.61;101420.09;1725172;83;20989;-65
2021/10/10 02:50:22;;;;;;;9.90;7.65;;;;;;;10.78;37.76;101420.42;1707250;82;21560;-64
2021/10/10 02:52:50;;;;;;;13.20;8.13;;;;;;;10.65;37.88;101421.58;1711158;82;21534;-64
2021/10/10 02:55:16;;;;;;;9.45;7.83;;;;;;;10.52;38.07;101424.39;1720002;82;21233;-64
2021/10/10 02:57:43;;;;;;;9.93;8.18;;;;;;;10.42;38.24;101421.16;1698409;82;21031;-64
2021/10/10 03:00:11;;;;;;;10.40;8.08;;;;;;;10.34;38.33;101422.28;1719982;82;21046;-65
2021/10/10 03:02:38;;;;;;;11.73;8.05;;;;;;;10.25;38.48;101424.32;1709240;82;21097;-64
2021/10/10 03:05:07;;;;;;;10.85;7.55;;;;;;;10.17;38.68;101418.80;1705783;82;21051;-63
2021/10/10 03:07:38;;;;;;;8.40;6.85;;;;;;;10.11;38.88;101419.30;1718714;82;21161;-63
2021/10/10 03:10:08;;;;;;;10.15;7.92;;;;;;;10.07;39.03;101424.01;1698490;81;26128;-64
2021/10/10 03:12:35;;;;;;;17.90;8.28;;;;;;;10.02;39.21;101416.88;1698706;81;21094;-64
2021/10/10 03:15:02;;;;;;;11.75;7.45;;;;;;;9.97;39.36;101417.27;1716809;83;21086;-64
2021/10/10 03:17:29;;;;;;;11.18;7.75;;;;;;;9.93;39.46;101413.64;1700819;81;21095;-64
2021/10/10 03:19:58;;;;;;;17.75;7.12;;;;;;;9.88;39.60;101415.83;1711139;83;21313;-64
2021/10/10 03:22:24;;;;;;;9.23;7.15;;;;;;;9.86;39.71;101416.44;1706277;81;21130;-64
2021/10/10 03:24:51;;;;;;;11.68;7.45;;;;;;;9.82;39.85;101409.20;1715560;82;21058;-64
2021/10/10 03:27:21;;;;;;;11.55;7.67;;;;;;;9.79;39.97;101410.30;1699310;81;21087;-63
2021/10/10 03:29:48;;;;;;;11.20;7.25;;;;;;;9.75;40.07;101406.66;1724137;81;21549;-64
2021/10/10 03:32:14;;;;;;;10.30;7.62;;;;;;;9.71;40.23;101410.05;1729058;81;21090;-63
2021/10/10 03:34:43;;;;;;;10.28;6.72;;;;;;;9.70;40.25;101412.35;1728867;81;21027;-64
2021/10/10 03:37:09;;;;;;;9.18;6.95;;;;;;;9.69;40.28;101413.30;1728814;81;21004;-64
2021/10/10 03:39:35;;;;;;;10.32;8.25;;;;;;;9.70;40.26;101415.50;1723275;81;21129;-64
2021/10/10 03:42:02;;;;;;;10.23;7.47;;;;;;;9.68;40.26;101410.77;1728571;81;21542;-64
2021/10/10 03:44:28;;;;;;;10.23;7.17;;;;;;;9.65;40.31;101410.05;1728718;81;21791;-64
2021/10/10 03:46:55;;;;;;;8.53;7.00;;;;;;;9.64;40.29;101404.88;1712540;81;21588;-64
2021/10/10 03:49:21;;;;;;;9.48;7.55;;;;;;;9.62;40.37;101404.16;1715179;81;21028;-64
2021/10/10 03:51:47;;;;;;;12.43;7.95;;;;;;;9.61;40.42;101404.62;1728453;81;21038;-64
2021/10/10 03:56:47;;;;;;;9.68;7.60;;;;;;;9.59;40.57;101395.94;1728423;81;21495;-64
2021/10/10 03:59:16;;;;;;;9.20;7.40;;;;;;;9.59;40.63;101397.27;1724653;81;21032;-64
2021/10/10 04:01:43;;;;;;;12.65;7.70;;;;;;;9.59;40.70;101390.63;1727583;81;21103;-64
2021/10/10 04:04:10;;;;;;;12.33;8.23;;;;;;;9.58;40.77;101396.05;1728488;81;21558;-65
2021/10/10 04:06:36;;;;;;;10.32;8.05;;;;;;;9.57;40.83;101396.55;1722939;81;21550;-64
2021/10/10 04:09:06;;;;;;;10.75;7.60;;;;;;;9.57;40.85;101392.56;1725330;81;21531;-64
2021/10/10 04:11:33;;;;;;;12.73;8.55;;;;;;;9.57;40.84;101391.73;1720590;81;21050;-65
2021/10/10 04:13:59;;;;;;;11.70;8.50;;;;;;;9.54;40.85;101386.19;1728778;81;21087;-64
2021/10/10 04:16:25;;;;;;;10.60;7.78;;;;;;;9.50;40.92;101386.05;1723575;81;21539;-64
2021/10/10 04:18:52;;;;;;;10.60;7.62;;;;;;;9.47;40.98;101388.95;1722510;81;21117;-65
2021/10/10 04:21:19;;;;;;;10.95;8.03;;;;;;;9.44;41.05;101382.55;1728512;81;21137;-64
2021/10/10 04:23:46;;;;;;;11.33;7.10;;;;;;;9.42;41.16;101383.16;1728372;81;21062;-63
2021/10/10 04:26:14;;;;;;;9.50;7.70;;;;;;;9.37;41.32;101382.20;1728371;81;21102;-64
2021/10/10 04:28:41;;;;;;;11.10;7.90;;;;;;;9.37;41.42;101386.67;1728503;81;21537;-64
2021/10/10 04:31:07;;;;;;;10.85;7.58;;;;;;;9.37;41.42;101386.67;1728530;81;21063;-65
2021/10/10 04:33:34;;;;;;;10.32;8.13;;;;;;;9.37;41.44;101393.31;1728501;81;21160;-64
2021/10/10 04:36:00;;;;;;;10.15;7.45;;;;;;;9.36;41.47;101387.62;1728334;81;21044;-64
2021/10/10 04:38:29;;;;;;;13.75;8.33;;;;;;;9.35;41.51;101385.47;1728276;81;21107;-64
2021/10/10 04:40:57;;;;;;;13.18;6.97;;;;;;;9.40;41.54;101385.09;1728297;81;21586;-64
2021/10/10 04:43:23;;;;;;;12.10;8.23;;;;;;;9.41;41.58;101390.77;1728471;81;21075;-64
2021/10/10 04:45:50;;;;;;;11.73;8.10;;;;;;;9.41;41.52;101392.09;1728431;81;21042;-64
2021/10/10 04:48:16;;;;;;;10.48;8.18;;;;;;;9.37;41.53;101393.31;1726631;81;21059;-64
2021/10/10 04:50:42;;;;;;;12.82;7.40;;;;;;;9.35;41.58;101386.79;1724737;81;21035;-64
2021/10/10 04:53:10;;;;;;;14.25;7.87;;;;;;;9.33;41.60;101394.48;1728349;81;21114;-64
2021/10/10 04:55:36;;;;;;;13.13;8.35;;;;;;;9.31;41.66;101396.41;1728751;81;21117;-64
2021/10/10 04:58:02;;;;;;;11.78;7.95;;;;;;;9.21;41.71;101381.23;1728346;81;21158;-64
2021/10/10 05:00:29;;;;;;;11.60;7.78;;;;;;;9.25;41.80;101393.30;1728608;81;21047;-64
2021/10/10 05:02:55;;;;;;;13.43;8.88;;;;;;;9.23;41.84;101391.70;1728446;81;21078;-64
2021/10/10 05:05:21;;;;;;;11.25;7.80;;;;;;;9.21;41.90;101390.98;1726800;81;21020;-65
2021/10/10 05:07:48;;;;;;;10.93;8.23;;;;;;;9.21;41.90;101392.30;1725042;81;21067;-65
2021/10/10 05:10:14;;;;;;;12.37;8.18;;;;;;;9.22;41.92;101395.33;1728468;81;21144;-65
2021/10/10 05:12:41;;;;;;;10.35;7.58;;;;;;;9.22;41.94;101397.50;1728528;81;21038;-64
2021/10/10 05:15:09;;;;;;;10.60;7.83;;;;;;;9.22;42.00;101391.36;1728493;81;21058;-64
2021/10/10 05:17:35;;;;;;;10.43;8.10;;;;;;;9.22;42.04;101395.33;1728258;81;21047;-63
2021/10/10 05:20:02;;;;;;;11.88;7.85;;;;;;;9.20;42.12;101401.23;1728544;81;21079;-64
2021/10/10 05:22:28;;;;;;;12.43;8.78;;;;;;;9.20;42.18;101404.73;1723059;81;21154;-65
2021/10/10 05:24:57;;;;;;;12.35;8.55;;;;;;;9.23;42.28;101401.85;1723621;81;21043;-64
2021/10/10 05:27:22;;;;;;;11.78;8.65;;;;;;;9.22;42.36;101400.15;1727660;81;21059;-64
2021/10/10 05:29:49;;;;;;;13.85;8.58;;;;;;;9.24;42.42;101407.50;1728563;81;21131;-65
2021/10/10 05:32:15;;;;;;;12.35;8.70;;;;;;;9.24;42.46;101404.85;1727548;81;21420;-64
2021/10/10 05:34:41;;;;;;;13.25;9.23;;;;;;;9.24;42.50;101405.34;1724061;81;21118;-64
2021/10/10 05:37:08;;;;;;;13.95;8.78;;;;;;;9.23;42.59;101405.83;1728317;81;21066;-64
2021/10/10 05:39:35;;;;;;;11.75;8.25;;;;;;;9.23;42.60;101409.80;1728357;81;21035;-63
2021/10/10 05:42:02;;;;;;;13.08;9.35;;;;;;;9.23;42.59;101410.27;1728603;81;21027;-65
2021/10/10 05:44:28;;;;;;;11.10;8.23;;;;;;;9.24;42.58;101407.99;1728367;81;21114;-64
2021/10/10 05:46:54;;;;;;;12.50;8.78;;;;;;;9.24;42.56;101411.48;1725834;81;21124;-63
2021/10/10 05:49:21;;;;;;;14.33;8.60;;;;;;;9.28;42.52;101404.62;1725822;81;21700;-64
2021/10/10 05:51:47;;;;;;;11.03;8.00;;;;;;;9.31;42.48;101413.66;1728681;81;21106;-64
2021/10/10 05:54:15;;;;;;;11.88;8.35;;;;;;;9.31;42.41;101411.87;1728499;81;21024;-64
2021/10/10 05:56:42;;;;;;;11.95;8.38;;;;;;;9.33;42.40;101417.03;1728682;81;21609;-65
2021/10/10 05:59:10;;;;;;;12.18;8.60;;;;;;;9.36;42.33;101415.47;1728634;81;21199;-65
2021/10/10 06:01:37;;;;;;;12.35;8.35;;;;;;;9.36;42.29;101416.31;1728207;81;21011;-65
2021/10/10 06:04:04;;;;;;;12.95;8.78;;;;;;;9.38;42.29;101419.69;1728470;81;21062;-64
2021/10/10 06:06:30;;;;;;;15.23;8.20;;;;;;;9.42;42.33;101420.30;1728517;81;21102;-63
2021/10/10 06:08:56;;;;;;;11.57;8.58;;;;;;;9.45;42.26;101425.38;1728305;81;21063;-64
2021/10/10 06:11:23;;;;;;;14.23;8.75;;;;;;;9.46;42.25;101420.42;1728516;81;21206;-64
2021/10/10 06:13:49;;;;;;;12.33;9.18;;;;;;;9.48;42.20;101421.14;1726380;81;21571;-64
2021/10/10 06:16:16;;;;;;;15.10;9.48;;;;;;;9.48;42.25;101425.12;1720610;81;21055;-63
2021/10/10 06:18:42;;;;;;;15.58;8.68;;;;;;;9.50;42.29;101423.67;1727131;81;21054;-65
2021/10/10 06:21:08;;;;;;;14.53;9.35;;;;;;;9.52;42.26;101425.73;1728461;81;21061;-65
2021/10/10 06:23:35;;;;;;;13.48;10.20;;;;;;;9.53;42.27;101425.61;1728244;81;22413;-65
2021/10/10 06:26:01;;;;;;;12.82;8.65;;;;;;;9.57;42.25;101428.88;1725552;81;21015;-64
2021/10/10 06:28:27;;;;;;;12.55;9.53;;;;;;;9.57;42.23;101426.22;1725772;81;21050;-64
2021/10/10 06:30:54;;;;;;;12.37;8.83;;;;;;;9.57;42.18;101424.41;1720780;81;21110;-64
2021/10/10 06:33:20;;;;;;;16.48;8.38;;;;;;;9.57;42.23;101422.24;1725430;81;21058;-64
2021/10/10 06:35:46;;;;;;;11.73;8.80;;;;;;;9.60;42.23;101424.63;1728243;81;22879;-64
2021/10/10 06:38:13;;;;;;;14.33;8.48;;;;;;;9.63;42.25;101425.24;1728291;81;21538;-64
2021/10/10 06:40:39;;;;;;;12.40;8.23;;;;;;;9.69;42.17;101427.06;1728283;81;21035;-66
2021/10/10 06:43:05;;;;;;;16.10;8.45;;;;;;;9.71;42.08;101419.33;1723220;81;21553;-66
2021/10/10 06:45:32;;;;;;;11.08;8.58;;;;;;;9.75;41.98;101421.27;1728331;81;21606;-65
2021/10/10 06:47:58;;;;;;;15.35;8.20;;;;;;;9.77;41.87;101419.33;1728589;81;21044;-65
2021/10/10 06:50:25;;;;;;;15.45;8.93;;;;;;;9.80;41.83;101417.77;1728125;81;21043;-64
2021/10/10 06:52:51;;;;;;;14.50;8.68;;;;;;;9.84;41.86;101419.21;1728314;81;21016;-64
2021/10/10 06:55:18;;;;;;;14.85;10.10;;;;;;;9.88;41.71;101422.47;1728604;81;21036;-64
2021/10/10 06:57:44;;;;;;;13.18;8.93;;;;;;;9.90;41.59;101420.05;1728214;81;21102;-65
2021/10/10 07:00:13;;;;;;;14.23;9.03;;;;;;;9.93;41.59;101425.12;1726532;81;22082;-64
2021/10/10 07:02:42;;;;;;;14.68;9.15;;;;;;;9.96;41.57;101423.53;1724779;81;21094;-64
2021/10/10 07:05:11;;;;;;;12.15;9.15;;;;;;;9.99;41.57;101421.13;1728347;81;21171;-65
2021/10/10 07:07:37;;;;;;;13.75;8.28;;;;;;;10.02;41.55;101420.87;1727640;81;21036;-64
2021/10/10 07:10:05;;;;;;;15.15;9.30;;;;;;;10.06;41.59;101420.98;1728359;81;21031;-65
2021/10/10 07:12:32;;;;;;;14.83;9.78;;;;;;;10.10;41.53;101417.59;1728281;81;21131;-66
2021/10/10 07:14:58;;;;;;;11.53;8.68;;;;;;;10.11;41.41;101422.78;1728333;81;21101;-65
2021/10/10 07:17:28;;;;;;;17.92;9.70;;;;;;;10.14;41.38;101417.23;1723156;81;21046;-65
2021/10/10 07:20:03;;;;;;;14.45;9.98;;;;;;;10.17;41.36;101421.45;1723519;81;21106;-65
2021/10/10 07:22:44;;;;;;;12.10;8.33;;;;;;;10.20;41.31;101421.22;1720215;81;21087;-65
2021/10/10 07:25:07;;;;;;;16.20;9.05;;;;;;;10.24;41.25;101425.30;1723832;81;21231;-64
2021/10/10 07:27:42;;;;;;;12.78;9.30;;;;;;;10.27;41.28;101422.38;1728248;81;21621;-65
2021/10/10 07:30:12;;;;;;;17.25;9.40;;;;;;;10.29;41.27;101423.09;1728880;81;21067;-65
2021/10/10 07:32:41;;;;;;;13.43;8.48;;;;;;;10.34;41.22;101426.76;1708272;81;21019;-66
2021/10/10 07:35:08;;;;;;;11.57;8.53;;;;;;;10.36;41.19;101423.00;1728525;81;21078;-65
2021/10/10 07:37:36;;;;;;;17.52;10.23;;;;;;;10.40;41.22;101417.78;1720943;81;21124;-64
2021/10/10 07:40:03;;;;;;;16.70;8.40;;;;;;;10.43;41.14;101415.38;1723458;81;21720;-66
2021/10/10 07:42:30;;;;;;;18.50;8.75;;;;;;;10.47;41.13;101414.16;1728342;81;21115;-65
2021/10/10 07:45:07;;;;;;;15.43;8.50;;;;;;;10.52;41.15;101420.41;1726443;81;21022;-66
2021/10/10 07:47:45;;;;;;;11.88;7.85;;;;;;;10.57;41.21;101422.21;1725165;81;21075;-65
2021/10/10 07:49:59;;;;;;;11.97;8.85;;;;;;;10.61;41.16;101419.16;1695567;81;21160;-65
2021/10/10 07:52:25;;;;;;;12.13;8.75;;;;;;;10.67;41.07;101416.48;1728354;81;21807;-65
2021/10/10 07:54:52;;;;;;;15.75;8.58;;;;;;;10.72;40.95;101416.95;1728487;81;21498;-65
2021/10/10 07:57:19;;;;;;;11.83;8.20;;;;;;;10.77;40.74;101418.72;1728485;81;21062;-65
2021/10/10 07:59:45;;;;;;;11.55;7.85;;;;;;;10.82;40.68;101411.20;1728334;81;21039;-65
2021/10/10 08:02:11;;;;;;;9.90;7.95;;;;;;;10.89;40.51;101417.34;1728714;81;21131;-65
2021/10/10 08:04:37;;;;;;;13.13;8.40;;;;;;;10.94;40.37;101421.30;1728366;81;21683;-65
2021/10/10 08:07:05;;;;;;;12.55;7.92;;;;;;;11.00;40.29;101421.27;1728488;81;21027;-65
2021/10/10 08:09:31;;;;;;;13.13;8.90;;;;;;;11.04;40.29;101420.03;1728445;81;21046;-65
2021/10/10 08:12:00;;;;;;;13.85;8.38;;;;;;;11.09;40.17;101421.83;1727079;81;21073;-65
2021/10/10 08:14:26;;;;;;;11.08;7.55;;;;;;;11.14;40.09;101421.42;1724265;81;21094;-65
2021/10/10 08:16:52;;;;;;;13.25;8.78;;;;;;;11.19;40.01;101417.89;1728825;81;21130;-66
2021/10/10 08:19:18;;;;;;;13.78;8.20;;;;;;;11.25;39.94;101420.52;1728351;81;21034;-64
2021/10/10 08:21:45;;;;;;;10.70;8.50;;;;;;;11.30;39.80;101420.94;1728627;81;21050;-64
2021/10/10 08:24:12;;;;;;;15.43;7.58;;;;;;;11.36;39.68;101420.44;1728444;81;21098;-65
2021/10/10 08:26:38;;;;;;;12.40;8.75;;;;;;;11.41;39.57;101421.73;1728542;81;21189;-65
2021/10/10 08:29:04;;;;;;;13.35;8.40;;;;;;;11.47;39.48;101421.66;1722755;81;21078;-65
2021/10/10 08:31:31;;;;;;;11.38;8.25;;;;;;;11.52;39.35;101422.11;1728394;81;21079;-65
2021/10/10 08:33:57;;;;;;;14.10;8.60;;;;;;;11.60;39.29;101429.44;1728353;81;21095;-65
2021/10/10 08:36:30;;;;;;;11.97;9.00;;;;;;;11.66;39.25;101420.91;1726671;81;21083;-68
2021/10/10 08:38:56;;;;;;;14.25;9.13;;;;;;;11.72;39.24;101428.35;1722613;81;21729;-65
2021/10/10 08:41:25;;;;;;;14.35;8.53;;;;;;;11.80;39.15;101422.36;1723227;82;21118;-65
2021/10/10 08:43:54;;;;;;;11.88;7.60;;;;;;;11.86;39.14;101427.16;1723414;82;21039;-65
2021/10/10 08:46:24;;;;;;;13.05;8.38;;;;;;;11.94;39.07;101423.36;1723392;82;21132;-65
2021/10/10 08:48:51;;;;;;;13.50;9.15;;;;;;;12.02;39.05;101421.34;1723198;82;21094;-65
2021/10/10 08:51:19;;;;;;;16.52;9.60;;;;;;;12.11;39.11;101422.33;1723622;82;21782;-66
2021/10/10 08:53:45;;;;;;;16.02;10.13;;;;;;;12.20;39.01;101418.85;1723430;82;21048;-65
2021/10/10 08:56:12;;;;;;;13.05;10.53;;;;;;;12.31;38.99;101414.73;1723416;82;21551;-66
2021/10/10 08:58:42;;;;;;;13.28;9.63;;;;;;;12.42;39.04;101411.58;1723389;82;21083;-65
2021/10/10 09:01:26;;;;;;;15.30;9.60;;;;;;;12.54;38.90;101419.81;1723525;82;21640;-66
2021/10/10 09:03:49;;;;;;;14.70;10.23;;;;;;;12.65;38.92;101414.34;1722259;82;21341;-65
2021/10/10 09:06:16;;;;;;;13.08;9.70;;;;;;;12.77;38.97;101413.20;1723627;82;21537;-66
2021/10/10 09:08:43;;;;;;;11.65;9.08;;;;;;;12.90;38.80;101416.05;1714877;82;21031;-66
2021/10/10 09:11:10;;;;;;;13.15;9.93;;;;;;;13.01;38.67;101409.23;1723643;82;21034;-65
2021/10/10 09:13:42;;;;;;;13.13;9.80;;;;;;;13.13;38.65;101411.25;1714967;82;21078;-63
2021/10/10 09:16:10;;;;;;;13.45;9.65;;;;;;;13.26;38.49;101402.94;1723422;82;21224;-66
2021/10/10 09:18:41;;;;;;;11.60;9.83;;;;;;;13.38;38.32;101401.79;1721851;82;21110;-65
2021/10/10 09:21:28;;;;;;;13.38;9.25;;;;;;;13.48;38.14;101397.28;1723447;82;21031;-66
2021/10/10 09:23:56;;;;;;;11.43;9.55;;;;;;;13.61;38.02;101399.59;1723534;82;21031;-66
2021/10/10 09:26:24;;;;;;;13.32;9.23;;;;;;;13.75;37.92;101396.92;1723426;82;21071;-66
2021/10/10 09:28:51;;;;;;;10.78;8.20;;;;;;;13.88;37.79;101391.23;1721828;82;21953;-64
2021/10/10 09:31:17;;;;;;;14.68;8.05;;;;;;;13.98;37.46;101389.34;1716655;82;21059;-65
2021/10/10 09:33:52;;;;;;;19.70;12.95;;;;;;;14.08;37.29;101391.48;1723292;82;21079;-68
2021/10/10 09:36:27;;;;;;;13.70;10.18;;;;;;;14.17;37.12;101381.70;1720850;82;21095;-66
2021/10/10 09:39:07;;;;;;;13.93;9.13;;;;;;;14.31;36.88;101389.20;1718328;82;21071;-65
2021/10/10 09:41:32;;;;;;;10.43;8.30;;;;;;;14.41;36.60;101381.11;1710294;82;21158;-65
2021/10/10 09:44:13;;;;;;;13.32;8.40;;;;;;;14.53;36.42;101373.19;1718062;82;21524;-66
2021/10/10 09:46:42;;;;;;;15.53;8.38;;;;;;;14.65;36.37;101375.15;1720027;82;21110;-65
2021/10/10 09:49:32;;;;;;;17.07;9.25;;;;;;;14.77;36.25;101369.05;1718589;82;21515;-65
2021/10/10 09:52:11;;;;;;;12.05;7.42;;;;;;;14.88;36.00;101373.33;1723434;82;21082;-66
2021/10/10 09:54:52;;;;;;;15.60;8.35;;;;;;;15.01;35.75;101375.09;1723384;82;21209;-66
2021/10/10 09:57:19;;;;;;;12.53;7.62;;;;;;;15.11;35.49;101370.97;1723514;82;21027;-65
2021/10/10 09:59:46;;;;;;;9.85;6.80;;;;;;;15.21;35.21;101373.03;1723314;82;21050;-64
2021/10/10 10:02:13;;;;;;;9.88;7.42;;;;;;;15.28;35.02;101367.89;1723341;82;22258;-65
2021/10/10 10:04:46;;;;;;;8.20;7.40;;;;;;;15.38;34.86;101365.92;1723376;82;21063;-66
2021/10/10 10:07:16;;;;;;;10.98;7.15;;;;;;;15.50;34.71;101367.81;1723573;82;21200;-65
2021/10/10 10:09:43;;;;;;;10.45;7.65;;;;;;;15.61;34.55;101366.70;1722974;82;21043;-65
2021/10/10 10:12:09;;;;;;;9.28;6.50;;;;;;;15.72;34.38;101361.03;1723427;82;21092;-65
2021/10/10 10:14:36;;;;;;;9.93;7.17;;;;;;;15.86;34.23;101363.13;1723324;82;21047;-65
2021/10/10 10:17:03;;;;;;;9.73;7.08;;;;;;;15.99;34.00;101361.81;1723391;82;21051;-66
2021/10/10 10:19:30;;;;;;;9.08;6.67;;;;;;;16.11;33.84;101359.17;1723697;82;21756;-65
2021/10/10 10:21:57;;;;;;;10.13;6.72;;;;;;;16.25;33.62;101349.13;1723359;82;21527;-65
2021/10/10 10:24:24;;;;;;;8.73;7.05;;;;;;;16.38;33.44;101345.96;1723661;82;21083;-65
2021/10/10 10:26:51;;;;;;;11.93;6.67;;;;;;;16.52;33.25;101343.11;1714846;82;21095;-64
2021/10/10 10:29:25;;;;;;;11.50;6.53;;;;;;;16.65;33.17;101344.78;1723447;82;21168;-65
2021/10/10 10:31:56;;;;;;;9.30;6.75;;;;;;;16.79;33.00;101338.39;1723465;82;21810;-66
2021/10/10 10:34:31;;;;;;;9.80;7.08;;;;;;;16.92;32.77;101338.74;1694554;82;21047;-65
2021/10/10 10:37:09;;;;;;;8.33;6.12;;;;;;;17.05;32.51;101332.83;1723522;82;21028;-65
2021/10/10 10:39:49;;;;;;;10.05;6.45;;;;;;;17.19;32.30;101332.61;1719386;81;21031;-65
2021/10/10 10:42:27;;;;;;;10.93;6.08;;;;;;;17.33;32.10;101331.08;1728527;81;21016;-66
2021/10/10 10:44:54;;;;;;;10.82;5.00;;;;;;;17.45;31.85;101326.98;1723808;81;21897;-65
2021/10/10 10:47:39;;;;;;;6.50;4.60;;;;;;;17.59;31.45;101327.58;1728373;81;21019;-64
2021/10/10 10:50:23;;;;;;;5.53;4.17;;;;;;;17.73;30.80;101323.81;1728514;81;21027;-65
2021/10/10 10:53:04;;;;;;;5.70;4.20;;;;;;;17.86;30.21;101327.63;1720653;81;21589;-64
2021/10/10 10:55:38;;;;;;;6.50;4.33;;;;;;;18.00;29.90;101313.09;1728529;81;21249;-65
2021/10/10 10:58:12;;;;;;;5.67;4.55;;;;;;;18.15;29.67;101312.64;1723420;81;21134;-66
2021/10/10 11:00:44;;;;;;;6.62;4.45;;;;;;;18.26;29.53;101301.47;1728430;81;21020;-66
2021/10/10 11:03:13;;;;;;;7.05;4.05;;;;;;;18.39;29.29;101308.94;1728506;81;21090;-65
2021/10/10 11:05:49;;;;;;;6.30;3.75;;;;;;;18.52;29.05;101298.88;1725321;81;21071;-65
2021/10/10 11:08:28;;;;;;;6.17;3.98;;;;;;;18.65;28.78;101302.30;1726685;81;21039;-66
2021/10/10 11:11:19;;;;;;;10.88;4.30;;;;;;;18.77;28.59;101305.38;1728602;81;21525;-64
2021/10/10 11:13:58;;;;;;;7.30;3.85;;;;;;;18.89;28.51;101308.00;1728516;81;21031;-66
2021/10/10 11:16:29;;;;;;;7.80;4.12;;;;;;;19.03;28.35;101304.98;1728428;81;21094;-64
2021/10/10 11:19:12;;;;;;;6.12;3.72;;;;;;;19.16;28.04;101292.19;1728852;81;21070;-66
2021/10/10 11:21:42;;;;;;;;;;;;;;;19.25;27.96;101297.80;1731068;81;21055;-66
2021/10/10 11:24:20;;;;;;;7.05;4.33;;;;;;;19.36;27.68;101300.02;1698635;81;21158;-67
2021/10/10 11:26:48;;;;;;;7.55;4.67;;;;;;;19.45;27.75;101299.39;1728339;81;21145;-66
2021/10/10 11:29:18;;;;;;;7.28;4.20;;;;;;;19.56;27.74;101286.78;1728990;81;21094;-64
2021/10/10 11:31:46;;;;;;;6.95;4.10;;;;;;;19.68;27.67;101284.94;1727816;81;21067;-64
2021/10/10 11:34:15;;;;;;;8.90;4.10;;;;;;;19.78;27.46;101287.70;1728716;81;21578;-66
2021/10/10 11:36:52;;;;;;;5.60;3.65;;;;;;;19.89;27.32;101285.51;1728393;81;21050;-65
2021/10/10 11:39:26;;;;;;;8.98;4.40;;;;;;;20.00;27.23;101277.73;1727270;81;21059;-64
2021/10/10 11:42:12;;;;;;;5.50;3.92;;;;;;;20.12;27.16;101275.36;1723584;82;21136;-65
2021/10/10 11:44:43;;;;;;;7.45;4.58;;;;;;;20.26;27.08;101272.77;1722186;82;21586;-66
2021/10/10 11:47:25;;;;;;;13.15;8.98;;;;;;;20.38;27.05;101272.06;1717350;82;21134;-65
2021/10/10 11:50:00;;;;;;;7.97;5.62;;;;;;;20.51;27.03;101269.95;1713209;82;21105;-66
2021/10/10 11:52:33;;;;;;;7.25;4.78;;;;;;;20.63;27.06;101259.51;1717607;82;21126;-64
2021/10/10 11:55:21;;;;;;;9.28;4.70;;;;;;;20.77;27.18;101260.42;1715355;81;21383;-65
2021/10/10 11:57:40;;;;;;;5.47;4.35;;;;;;;20.88;27.06;101262.57;1722219;81;21529;-66
2021/10/10 12:00:13;;;;;;;5.03;4.53;;;;;;;21.01;26.92;101261.30;1723597;82;21609;-66
2021/10/10 12:02:44;;;;;;;8.55;4.30;;;;;;;21.18;26.67;101255.01;1723485;82;21335;-64
2021/10/10 12:05:16;;;;;;;4.62;3.98;;;;;;;21.48;26.69;101260.66;1715059;82;21062;-65
2021/10/10 12:07:43;;;;;;;8.57;4.23;;;;;;;21.88;26.27;101253.47;1723682;82;21188;-66
2021/10/10 12:10:13;;;;;;;6.05;3.45;;;;;;;22.33;26.03;101246.15;1723475;82;21807;-65
2021/10/10 12:12:39;;;;;;;7.62;4.30;;;;;;;22.80;25.37;101248.25;1723704;82;21546;-66
2021/10/10 12:15:07;;;;;;;5.40;4.15;;;;;;;23.24;24.80;101253.45;1723513;82;21147;-65
2021/10/10 12:17:36;;;;;;;7.55;4.70;;;;;;;23.63;24.62;101245.32;1723423;82;21023;-65
2021/10/10 12:20:25;;;;;;;6.70;4.03;;;;;;;23.97;24.45;101235.94;1723838;82;21582;-65
2021/10/10 12:22:58;;;;;;;7.17;4.05;;;;;;;24.29;24.32;101236.69;1722653;82;21566;-65
2021/10/10 12:25:40;;;;;;;10.30;4.58;;;;;;;24.59;23.93;101233.82;1723435;82;21577;-65
2021/10/10 12:28:13;;;;;;;4.03;3.58;;;;;;;24.81;23.68;101226.90;1723563;82;21971;-65
2021/10/10 12:30:51;;;;;;;5.53;3.95;;;;;;;25.00;23.70;101227.73;1713308;82;21088;-66
2021/10/10 12:33:30;;;;;;;8.93;4.47;;;;;;;25.12;23.56;101225.89;1711637;82;21054;-64
2021/10/10 12:36:15;;;;;;;6.80;3.83;;;;;;;25.15;23.04;101228.70;1711375;82;21063;-64
2021/10/10 12:38:50;;;;;;;8.18;3.47;;;;;;;25.05;22.91;101225.67;1711128;82;21756;-64
2021/10/10 12:41:27;;;;;;;6.42;3.70;;;;;;;24.87;22.30;101221.91;1732855;81;21461;-65
2021/10/10 12:44:04;;;;;;;4.97;3.50;;;;;;;24.70;22.67;101223.03;1733588;81;21649;-65
2021/10/10 12:46:48;;;;;;;5.60;3.12;;;;;;;24.52;22.89;101220.32;1733493;81;21692;-66
2021/10/10 12:49:35;;;;;;;5.25;3.20;;;;;;;24.34;22.58;101220.56;1733808;81;21506;-65
2021/10/10 12:52:08;;;;;;;4.47;3.45;;;;;;;24.19;22.58;101220.08;1733835;81;21046;-65
2021/10/10 12:54:39;;;;;;;3.70;2.73;;;;;;;24.03;22.67;101214.69;1733850;81;21347;-65
2021/10/10 12:57:09;;;;;;;4.78;3.45;;;;;;;23.92;22.43;101214.87;1733633;81;21562;-65
2021/10/10 12:59:37;;;;;;;4.72;2.98;;;;;;;23.83;22.39;101221.61;1733627;81;21058;-65
2021/10/10 13:02:10;;;;;;;4.35;3.02;;;;;;;23.74;22.62;101220.20;1711025;81;21031;-65
2021/10/10 13:04:38;;;;;;;3.83;2.95;;;;;;;23.66;22.69;101213.67;1733569;81;21106;-64
2021/10/10 13:07:05;;;;;;;4.17;2.58;;;;;;;23.59;22.53;101210.19;1733661;81;21163;-65
2021/10/10 13:09:32;;;;;;;4.97;2.98;;;;;;;23.53;22.40;101210.53;1733429;81;21043;-65
2021/10/10 13:12:02;;;;;;;3.77;3.00;;;;;;;23.48;22.42;101204.39;1733559;81;21079;-64
2021/10/10 13:14:30;;;;;;;4.62;3.33;;;;;;;23.43;22.53;101209.66;1733580;81;21542;-65
2021/10/10 13:16:56;;;;;;;4.55;3.42;;;;;;;23.40;22.44;101203.84;1733848;81;21105;-65
2021/10/10 13:19:23;;;;;;;3.70;3.05;;;;;;;23.35;22.63;101205.33;1733594;81;23360;-67
2021/10/10 13:21:50;;;;;;;4.05;3.60;;;;;;;23.32;22.30;101200.32;1733850;81;21546;-65
2021/10/10 13:24:17;;;;;;;6.17;3.58;;;;;;;23.30;22.26;101198.88;1733559;81;21055;-65
2021/10/10 13:26:43;;;;;;;5.78;3.60;;;;;;;23.28;22.49;101200.98;1733544;81;21549;-64
2021/10/10 13:29:15;;;;;;;3.98;3.58;;;;;;;23.25;22.62;101200.88;1733517;81;21703;-65
2021/10/10 13:31:42;;;;;;;4.45;3.80;;;;;;;23.22;22.66;101198.61;1733529;81;21074;-66
2021/10/10 13:34:11;;;;;;;8.73;3.65;;;;;;;23.18;22.75;101189.25;1733544;81;21094;-66
2021/10/10 13:36:38;;;;;;;4.90;3.45;;;;;;;23.12;22.80;101196.37;1715235;82;21003;-65
2021/10/10 13:39:05;;;;;;;7.95;3.65;;;;;;;23.08;22.74;101191.58;1733705;81;21101;-66
2021/10/10 13:41:36;;;;;;;7.65;3.60;;;;;;;22.99;22.76;101198.28;1728711;81;21566;-65
2021/10/10 13:44:04;;;;;;;4.17;3.37;;;;;;;22.89;22.81;101190.58;1728276;81;22053;-65
2021/10/10 13:46:31;;;;;;;6.12;4.10;;;;;;;22.74;22.89;101186.27;1726641;81;21566;-65
2021/10/10 13:48:57;;;;;;;5.83;3.90;;;;;;;22.60;23.04;101193.28;1724601;81;21118;-65